sensor_id;sensor_type;location;lat;lon;timestamp;temperature;humidity
52481;DHT22;38393;52.404;13.532;2023-06-19T00:02:14;16.30;99.90
52481;DHT22;38393;52.404;13.532;2023-06-19T00:04:40;16.30;99.90
52481;DHT22;38393;52.404;13.532;2023-06-19T00:07:05;16.20;99.90
52481;DHT22;38393;52.404;13.532;2023-06-19T00:09:32;16.30;99.90
52481;DHT22;38393;52.404;13.532;2023-06-19T00:11:58;16.30;99.90
52481;DHT22;38393;52.404;13.532;2023-06-19T00:14:25;16.30;99.90
52481;DHT22;38393;52.404;13.532;2023-06-19T00:16:50;16.30;99.90
52481;DHT22;38393;52.404;13.532;2023-06-19T00:19:16;16.30;99.90
52481;DHT22;38393;52.404;13.532;2023-06-19T00:21:42;16.30;99.90
52481;DHT22;38393;52.404;13.532;2023-06-19T00:24:10;16.20;99.90
52481;DHT22;38393;52.404;13.532;2023-06-19T00:26:36;16.20;99.90
52481;DHT22;38393;52.404;13.532;2023-06-19T00:29:01;16.20;99.90
52481;DHT22;38393;52.404;13.532;2023-06-19T00:31:27;16.20;99.90
52481;DHT22;38393;52.404;13.532;2023-06-19T00:33:53;16.20;99.90
52481;DHT22;38393;52.404;13.532;2023-06-19T00:36:19;16.30;99.90
52481;DHT22;38393;52.404;13.532;2023-06-19T00:38:48;16.40;99.90
52481;DHT22;38393;52.404;13.532;2023-06-19T00:41:15;16.50;99.90
52481;DHT22;38393;52.404;13.532;2023-06-19T00:43:41;16.50;99.90
52481;DHT22;38393;52.404;13.532;2023-06-19T00:46:06;16.50;99.90
52481;DHT22;38393;52.404;13.532;2023-06-19T00:48:34;16.50;99.90
52481;DHT22;38393;52.404;13.532;2023-06-19T00:51:00;16.60;99.90
52481;DHT22;38393;52.404;13.532;2023-06-19T00:53:25;16.60;99.90
52481;DHT22;38393;52.404;13.532;2023-06-19T00:55:53;16.70;99.90
52481;DHT22;38393;52.404;13.532;2023-06-19T00:58:22;16.70;99.90
52481;DHT22;38393;52.404;13.532;2023-06-19T01:00:48;16.80;99.90
52481;DHT22;38393;52.404;13.532;2023-06-19T01:03:14;16.80;99.90
52481;DHT22;38393;52.404;13.532;2023-06-19T01:05:40;16.90;99.90
52481;DHT22;38393;52.404;13.532;2023-06-19T01:10:54;16.80;99.90
52481;DHT22;38393;52.404;13.532;2023-06-19T01:13:37;16.90;99.90
52481;DHT22;38393;52.404;13.532;2023-06-19T01:16:04;16.80;99.90
52481;DHT22;38393;52.404;13.532;2023-06-19T01:18:31;16.70;99.90
52481;DHT22;38393;52.404;13.532;2023-06-19T01:21:11;16.60;99.90
52481;DHT22;38393;52.404;13.532;2023-06-19T01:23:37;16.60;99.90
52481;DHT22;38393;52.404;13.532;2023-06-19T01:26:03;16.60;99.90
52481;DHT22;38393;52.404;13.532;2023-06-19T01:28:28;16.50;99.90
52481;DHT22;38393;52.404;13.532;2023-06-19T01:30:55;16.40;99.90
52481;DHT22;38393;52.404;13.532;2023-06-19T01:33:28;16.40;99.90
52481;DHT22;38393;52.404;13.532;2023-06-19T01:35:55;16.30;99.90
52481;DHT22;38393;52.404;13.532;2023-06-19T01:38:23;16.30;99.90
52481;DHT22;38393;52.404;13.532;2023-06-19T01:40:53;16.30;99.90
52481;DHT22;38393;52.404;13.532;2023-06-19T01:43:20;16.30;99.90
52481;DHT22;38393;52.404;13.532;2023-06-19T01:45:46;16.20;99.90
52481;DHT22;38393;52.404;13.532;2023-06-19T01:48:14;16.20;99.90
52481;DHT22;38393;52.404;13.532;2023-06-19T01:50:41;16.10;99.90
52481;DHT22;38393;52.404;13.532;2023-06-19T01:53:06;16.20;99.90
52481;DHT22;38393;52.404;13.532;2023-06-19T01:55:31;16.10;99.90
52481;DHT22;38393;52.404;13.532;2023-06-19T01:57:57;16.10;99.90
52481;DHT22;38393;52.404;13.532;2023-06-19T02:00:23;16.10;99.90
52481;DHT22;38393;52.404;13.532;2023-06-19T02:02:49;16.10;99.90
52481;DHT22;38393;52.404;13.532;2023-06-19T02:05:14;16.10;99.90
52481;DHT22;38393;52.404;13.532;2023-06-19T02:07:40;16.10;99.90
52481;DHT22;38393;52.404;13.532;2023-06-19T02:10:06;16.10;99.90
52481;DHT22;38393;52.404;13.532;2023-06-19T02:12:33;16.20;99.90
52481;DHT22;38393;52.404;13.532;2023-06-19T02:14:58;16.20;99.90
52481;DHT22;38393;52.404;13.532;2023-06-19T02:17:24;16.30;99.90
52481;DHT22;38393;52.404;13.532;2023-06-19T02:19:49;16.20;99.90
52481;DHT22;38393;52.404;13.532;2023-06-19T02:22:15;16.20;99.90
52481;DHT22;38393;52.404;13.532;2023-06-19T02:24:40;16.20;99.90
52481;DHT22;38393;52.404;13.532;2023-06-19T02:27:06;16.10;99.90
52481;DHT22;38393;52.404;13.532;2023-06-19T02:29:31;16.10;99.90
52481;DHT22;38393;52.404;13.532;2023-06-19T02:31:59;16.10;99.90
52481;DHT22;38393;52.404;13.532;2023-06-19T02:34:24;16.00;99.90
52481;DHT22;38393;52.404;13.532;2023-06-19T02:36:50;15.90;99.90
52481;DHT22;38393;52.404;13.532;2023-06-19T02:39:16;15.90;99.90
52481;DHT22;38393;52.404;13.532;2023-06-19T02:41:41;15.80;99.90
52481;DHT22;38393;52.404;13.532;2023-06-19T02:44:11;15.80;99.90
52481;DHT22;38393;52.404;13.532;2023-06-19T02:46:37;15.80;99.90
52481;DHT22;38393;52.404;13.532;2023-06-19T02:49:02;15.80;99.90
52481;DHT22;38393;52.404;13.532;2023-06-19T02:51:27;15.80;99.90
52481;DHT22;38393;52.404;13.532;2023-06-19T02:53:53;15.90;99.90
52481;DHT22;38393;52.404;13.532;2023-06-19T02:56:18;15.80;99.90
52481;DHT22;38393;52.404;13.532;2023-06-19T02:58:44;15.90;99.90
52481;DHT22;38393;52.404;13.532;2023-06-19T03:01:09;15.80;99.90
52481;DHT22;38393;52.404;13.532;2023-06-19T03:03:35;15.90;99.90
52481;DHT22;38393;52.404;13.532;2023-06-19T03:06:04;15.90;99.90
52481;DHT22;38393;52.404;13.532;2023-06-19T03:08:31;16.00;99.90
52481;DHT22;38393;52.404;13.532;2023-06-19T03:10:56;15.90;99.90
52481;DHT22;38393;52.404;13.532;2023-06-19T03:13:22;16.00;99.90
52481;DHT22;38393;52.404;13.532;2023-06-19T03:15:47;15.90;99.90
52481;DHT22;38393;52.404;13.532;2023-06-19T03:18:13;15.90;99.90
52481;DHT22;38393;52.404;13.532;2023-06-19T03:20:39;15.90;99.90
52481;DHT22;38393;52.404;13.532;2023-06-19T03:23:04;16.10;99.90
52481;DHT22;38393;52.404;13.532;2023-06-19T03:25:29;16.00;99.90
52481;DHT22;38393;52.404;13.532;2023-06-19T03:28:03;16.00;99.90
52481;DHT22;38393;52.404;13.532;2023-06-19T03:30:28;16.10;99.90
52481;DHT22;38393;52.404;13.532;2023-06-19T03:32:54;16.30;99.90
52481;DHT22;38393;52.404;13.532;2023-06-19T03:35:19;16.50;99.90
52481;DHT22;38393;52.404;13.532;2023-06-19T03:37:45;16.50;99.90
52481;DHT22;38393;52.404;13.532;2023-06-19T03:40:10;16.60;99.90
52481;DHT22;38393;52.404;13.532;2023-06-19T03:42:39;16.80;99.90
52481;DHT22;38393;52.404;13.532;2023-06-19T03:45:05;16.80;99.90
52481;DHT22;38393;52.404;13.532;2023-06-19T03:47:31;16.90;99.90
52481;DHT22;38393;52.404;13.532;2023-06-19T03:49:57;17.00;99.90
52481;DHT22;38393;52.404;13.532;2023-06-19T03:52:22;17.10;99.90
52481;DHT22;38393;52.404;13.532;2023-06-19T03:54:47;17.10;99.90
52481;DHT22;38393;52.404;13.532;2023-06-19T03:57:13;17.10;99.90
52481;DHT22;38393;52.404;13.532;2023-06-19T03:59:38;17.20;99.90
52481;DHT22;38393;52.404;13.532;2023-06-19T04:02:04;17.20;99.90
52481;DHT22;38393;52.404;13.532;2023-06-19T04:04:30;17.20;99.90
52481;DHT22;38393;52.404;13.532;2023-06-19T04:06:55;17.20;99.90
52481;DHT22;38393;52.404;13.532;2023-06-19T04:09:20;17.30;99.90
52481;DHT22;38393;52.404;13.532;2023-06-19T04:11:46;17.30;99.90
52481;DHT22;38393;52.404;13.532;2023-06-19T04:14:11;17.30;99.90
52481;DHT22;38393;52.404;13.532;2023-06-19T04:16:37;17.30;99.90
52481;DHT22;38393;52.404;13.532;2023-06-19T04:19:02;17.40;99.90
52481;DHT22;38393;52.404;13.532;2023-06-19T04:21:28;17.40;99.90
52481;DHT22;38393;52.404;13.532;2023-06-19T04:23:53;17.50;99.90
52481;DHT22;38393;52.404;13.532;2023-06-19T04:26:19;17.50;99.90
52481;DHT22;38393;52.404;13.532;2023-06-19T04:28:46;17.50;99.90
52481;DHT22;38393;52.404;13.532;2023-06-19T04:31:12;17.60;99.90
52481;DHT22;38393;52.404;13.532;2023-06-19T04:33:37;17.60;99.90
52481;DHT22;38393;52.404;13.532;2023-06-19T04:36:03;17.60;99.90
52481;DHT22;38393;52.404;13.532;2023-06-19T04:38:28;17.60;99.90
52481;DHT22;38393;52.404;13.532;2023-06-19T04:40:54;17.70;99.90
52481;DHT22;38393;52.404;13.532;2023-06-19T04:43:19;17.70;99.90
52481;DHT22;38393;52.404;13.532;2023-06-19T04:45:45;17.70;99.90
52481;DHT22;38393;52.404;13.532;2023-06-19T04:48:10;17.70;99.90
52481;DHT22;38393;52.404;13.532;2023-06-19T04:50:36;17.80;99.90
52481;DHT22;38393;52.404;13.532;2023-06-19T04:53:02;17.80;99.90
52481;DHT22;38393;52.404;13.532;2023-06-19T04:55:27;17.80;99.90
52481;DHT22;38393;52.404;13.532;2023-06-19T04:57:53;17.80;99.90
52481;DHT22;38393;52.404;13.532;2023-06-19T05:00:19;17.90;99.90
52481;DHT22;38393;52.404;13.532;2023-06-19T05:02:45;17.90;99.90
52481;DHT22;38393;52.404;13.532;2023-06-19T05:05:15;18.00;99.90
52481;DHT22;38393;52.404;13.532;2023-06-19T05:07:41;18.00;99.90
52481;DHT22;38393;52.404;13.532;2023-06-19T05:10:07;18.00;99.90
52481;DHT22;38393;52.404;13.532;2023-06-19T05:12:34;18.00;99.90
52481;DHT22;38393;52.404;13.532;2023-06-19T05:14:59;18.00;99.90
52481;DHT22;38393;52.404;13.532;2023-06-19T05:17:25;18.00;99.90
52481;DHT22;38393;52.404;13.532;2023-06-19T05:19:50;18.00;99.90
52481;DHT22;38393;52.404;13.532;2023-06-19T05:22:16;18.20;99.90
52481;DHT22;38393;52.404;13.532;2023-06-19T05:24:44;18.10;99.90
52481;DHT22;38393;52.404;13.532;2023-06-19T05:27:09;18.20;99.90
52481;DHT22;38393;52.404;13.532;2023-06-19T05:29:35;18.20;99.90
52481;DHT22;38393;52.404;13.532;2023-06-19T05:32:00;18.20;99.90
52481;DHT22;38393;52.404;13.532;2023-06-19T05:34:26;18.30;99.30
52481;DHT22;38393;52.404;13.532;2023-06-19T05:36:51;18.30;99.90
52481;DHT22;38393;52.404;13.532;2023-06-19T05:39:17;18.30;99.90
52481;DHT22;38393;52.404;13.532;2023-06-19T05:41:44;18.40;99.30
52481;DHT22;38393;52.404;13.532;2023-06-19T05:44:11;18.50;99.20
52481;DHT22;38393;52.404;13.532;2023-06-19T05:46:40;18.60;99.60
52481;DHT22;38393;52.404;13.532;2023-06-19T05:49:06;18.60;99.90
52481;DHT22;38393;52.404;13.532;2023-06-19T05:51:31;18.60;98.70
52481;DHT22;38393;52.404;13.532;2023-06-19T05:53:57;18.60;98.30
52481;DHT22;38393;52.404;13.532;2023-06-19T05:56:28;18.70;98.40
52481;DHT22;38393;52.404;13.532;2023-06-19T05:58:53;18.70;98.50
52481;DHT22;38393;52.404;13.532;2023-06-19T06:01:19;18.80;98.80
52481;DHT22;38393;52.404;13.532;2023-06-19T06:03:45;18.90;98.80
52481;DHT22;38393;52.404;13.532;2023-06-19T06:06:10;18.90;98.90
52481;DHT22;38393;52.404;13.532;2023-06-19T06:08:36;18.90;98.00
52481;DHT22;38393;52.404;13.532;2023-06-19T06:11:01;19.00;99.20
52481;DHT22;38393;52.404;13.532;2023-06-19T06:13:27;19.10;98.60
52481;DHT22;38393;52.404;13.532;2023-06-19T06:15:53;19.20;97.60
52481;DHT22;38393;52.404;13.532;2023-06-19T06:18:19;19.20;97.10
52481;DHT22;38393;52.404;13.532;2023-06-19T06:20:44;19.20;96.90
52481;DHT22;38393;52.404;13.532;2023-06-19T06:23:10;19.20;97.00
52481;DHT22;38393;52.404;13.532;2023-06-19T06:25:35;19.20;96.70
52481;DHT22;38393;52.404;13.532;2023-06-19T06:28:01;19.30;96.40
52481;DHT22;38393;52.404;13.532;2023-06-19T06:30:26;19.20;97.00
52481;DHT22;38393;52.404;13.532;2023-06-19T06:32:53;19.30;96.10
52481;DHT22;38393;52.404;13.532;2023-06-19T06:35:18;19.40;96.70
52481;DHT22;38393;52.404;13.532;2023-06-19T06:37:44;19.40;96.90
52481;DHT22;38393;52.404;13.532;2023-06-19T06:40:11;19.50;96.10
52481;DHT22;38393;52.404;13.532;2023-06-19T06:42:38;19.50;95.20
52481;DHT22;38393;52.404;13.532;2023-06-19T06:45:07;19.50;95.20
52481;DHT22;38393;52.404;13.532;2023-06-19T06:47:34;19.60;95.20
52481;DHT22;38393;52.404;13.532;2023-06-19T06:49:59;19.60;95.00
52481;DHT22;38393;52.404;13.532;2023-06-19T06:52:25;19.70;94.80
52481;DHT22;38393;52.404;13.532;2023-06-19T06:54:50;19.80;95.30
52481;DHT22;38393;52.404;13.532;2023-06-19T06:57:16;19.90;93.50
52481;DHT22;38393;52.404;13.532;2023-06-19T06:59:41;20.00;93.00
52481;DHT22;38393;52.404;13.532;2023-06-19T07:02:07;20.10;93.60
52481;DHT22;38393;52.404;13.532;2023-06-19T07:04:32;20.10;92.90
52481;DHT22;38393;52.404;13.532;2023-06-19T07:06:58;20.20;93.70
52481;DHT22;38393;52.404;13.532;2023-06-19T07:09:24;20.20;94.10
52481;DHT22;38393;52.404;13.532;2023-06-19T07:11:49;20.40;91.80
52481;DHT22;38393;52.404;13.532;2023-06-19T07:14:15;20.50;91.80
52481;DHT22;38393;52.404;13.532;2023-06-19T07:16:44;20.50;92.20
52481;DHT22;38393;52.404;13.532;2023-06-19T07:19:10;20.50;91.50
52481;DHT22;38393;52.404;13.532;2023-06-19T07:21:36;20.70;92.10
52481;DHT22;38393;52.404;13.532;2023-06-19T07:24:01;20.90;91.50
52481;DHT22;38393;52.404;13.532;2023-06-19T07:26:27;21.00;91.30
52481;DHT22;38393;52.404;13.532;2023-06-19T07:28:53;21.10;90.40
52481;DHT22;38393;52.404;13.532;2023-06-19T07:31:18;21.10;90.70
52481;DHT22;38393;52.404;13.532;2023-06-19T07:33:44;21.10;90.80
52481;DHT22;38393;52.404;13.532;2023-06-19T07:36:09;21.30;89.10
52481;DHT22;38393;52.404;13.532;2023-06-19T07:38:39;21.50;87.80
52481;DHT22;38393;52.404;13.532;2023-06-19T07:41:05;21.60;87.10
52481;DHT22;38393;52.404;13.532;2023-06-19T07:43:32;21.80;84.60
52481;DHT22;38393;52.404;13.532;2023-06-19T07:45:58;21.90;86.40
52481;DHT22;38393;52.404;13.532;2023-06-19T07:48:24;22.10;83.80
52481;DHT22;38393;52.404;13.532;2023-06-19T07:50:49;22.20;82.90
52481;DHT22;38393;52.404;13.532;2023-06-19T07:53:15;22.30;83.10
52481;DHT22;38393;52.404;13.532;2023-06-19T07:55:41;22.30;80.80
52481;DHT22;38393;52.404;13.532;2023-06-19T07:58:07;22.40;80.80
52481;DHT22;38393;52.404;13.532;2023-06-19T08:00:32;22.60;80.70
52481;DHT22;38393;52.404;13.532;2023-06-19T08:02:58;22.70;80.60
52481;DHT22;38393;52.404;13.532;2023-06-19T08:05:23;22.80;79.60
52481;DHT22;38393;52.404;13.532;2023-06-19T08:07:49;22.90;81.10
52481;DHT22;38393;52.404;13.532;2023-06-19T08:10:14;23.00;80.10
52481;DHT22;38393;52.404;13.532;2023-06-19T08:12:44;23.10;80.40
52481;DHT22;38393;52.404;13.532;2023-06-19T08:15:10;23.30;80.80
52481;DHT22;38393;52.404;13.532;2023-06-19T08:17:36;23.20;78.20
52481;DHT22;38393;52.404;13.532;2023-06-19T08:20:02;23.40;80.30
52481;DHT22;38393;52.404;13.532;2023-06-19T08:22:30;23.40;78.60
52481;DHT22;38393;52.404;13.532;2023-06-19T08:24:55;23.60;77.50
52481;DHT22;38393;52.404;13.532;2023-06-19T08:27:21;23.80;75.70
52481;DHT22;38393;52.404;13.532;2023-06-19T08:29:47;23.80;75.10
52481;DHT22;38393;52.404;13.532;2023-06-19T08:32:12;23.90;73.20
52481;DHT22;38393;52.404;13.532;2023-06-19T08:34:37;24.10;74.50
52481;DHT22;38393;52.404;13.532;2023-06-19T08:37:04;23.90;75.80
52481;DHT22;38393;52.404;13.532;2023-06-19T08:39:29;23.70;75.40
52481;DHT22;38393;52.404;13.532;2023-06-19T08:41:55;23.60;76.00
52481;DHT22;38393;52.404;13.532;2023-06-19T08:44:21;23.60;78.20
52481;DHT22;38393;52.404;13.532;2023-06-19T08:46:46;23.50;77.90
52481;DHT22;38393;52.404;13.532;2023-06-19T08:49:13;23.40;78.00
52481;DHT22;38393;52.404;13.532;2023-06-19T08:51:40;23.30;77.70
52481;DHT22;38393;52.404;13.532;2023-06-19T08:54:06;23.30;80.40
52481;DHT22;38393;52.404;13.532;2023-06-19T08:56:33;23.30;81.20
52481;DHT22;38393;52.404;13.532;2023-06-19T08:59:16;23.40;82.40
52481;DHT22;38393;52.404;13.532;2023-06-19T09:01:52;23.50;79.40
52481;DHT22;38393;52.404;13.532;2023-06-19T09:04:25;23.80;77.30
52481;DHT22;38393;52.404;13.532;2023-06-19T09:06:58;24.00;76.60
52481;DHT22;38393;52.404;13.532;2023-06-19T09:09:25;24.10;73.00
52481;DHT22;38393;52.404;13.532;2023-06-19T09:12:08;24.10;76.10
52481;DHT22;38393;52.404;13.532;2023-06-19T09:14:46;24.10;74.50
52481;DHT22;38393;52.404;13.532;2023-06-19T09:17:21;24.10;75.20
52481;DHT22;38393;52.404;13.532;2023-06-19T09:19:48;24.20;75.60
52481;DHT22;38393;52.404;13.532;2023-06-19T09:22:17;24.10;76.60
52481;DHT22;38393;52.404;13.532;2023-06-19T09:24:44;24.20;76.40
52481;DHT22;38393;52.404;13.532;2023-06-19T09:27:14;24.30;75.20
52481;DHT22;38393;52.404;13.532;2023-06-19T09:29:44;24.20;74.20
52481;DHT22;38393;52.404;13.532;2023-06-19T09:32:20;24.30;74.20
52481;DHT22;38393;52.404;13.532;2023-06-19T09:34:48;24.30;73.10
52481;DHT22;38393;52.404;13.532;2023-06-19T09:37:14;24.30;75.50
52481;DHT22;38393;52.404;13.532;2023-06-19T09:39:41;24.30;75.50
52481;DHT22;38393;52.404;13.532;2023-06-19T09:42:07;24.40;75.70
52481;DHT22;38393;52.404;13.532;2023-06-19T09:44:39;24.30;75.70
52481;DHT22;38393;52.404;13.532;2023-06-19T09:47:18;24.40;76.00
52481;DHT22;38393;52.404;13.532;2023-06-19T09:49:53;24.30;77.50
52481;DHT22;38393;52.404;13.532;2023-06-19T09:52:20;24.30;76.10
52481;DHT22;38393;52.404;13.532;2023-06-19T09:54:49;24.50;76.80
52481;DHT22;38393;52.404;13.532;2023-06-19T09:57:14;24.60;74.30
52481;DHT22;38393;52.404;13.532;2023-06-19T09:59:41;24.50;74.60
52481;DHT22;38393;52.404;13.532;2023-06-19T10:02:08;24.50;73.30
52481;DHT22;38393;52.404;13.532;2023-06-19T10:04:45;24.30;72.70
52481;DHT22;38393;52.404;13.532;2023-06-19T10:07:19;24.20;71.60
52481;DHT22;38393;52.404;13.532;2023-06-19T10:09:59;24.30;74.10
52481;DHT22;38393;52.404;13.532;2023-06-19T10:12:41;24.60;72.80
52481;DHT22;38393;52.404;13.532;2023-06-19T10:15:21;24.80;76.30
52481;DHT22;38393;52.404;13.532;2023-06-19T10:17:48;24.60;77.50
52481;DHT22;38393;52.404;13.532;2023-06-19T10:20:24;24.80;75.20
52481;DHT22;38393;52.404;13.532;2023-06-19T10:23:02;24.90;74.50
52481;DHT22;38393;52.404;13.532;2023-06-19T10:25:30;25.10;72.90
52481;DHT22;38393;52.404;13.532;2023-06-19T10:27:57;25.10;73.10
52481;DHT22;38393;52.404;13.532;2023-06-19T10:30:22;25.20;72.80
52481;DHT22;38393;52.404;13.532;2023-06-19T10:32:48;25.20;72.90
52481;DHT22;38393;52.404;13.532;2023-06-19T10:35:14;25.50;72.70
52481;DHT22;38393;52.404;13.532;2023-06-19T10:37:41;25.60;70.30
52481;DHT22;38393;52.404;13.532;2023-06-19T10:40:07;25.80;70.00
52481;DHT22;38393;52.404;13.532;2023-06-19T10:42:36;25.90;69.50
52481;DHT22;38393;52.404;13.532;2023-06-19T10:45:03;25.90;67.10
52481;DHT22;38393;52.404;13.532;2023-06-19T10:47:29;25.80;67.80
52481;DHT22;38393;52.404;13.532;2023-06-19T10:49:54;25.90;67.70
52481;DHT22;38393;52.404;13.532;2023-06-19T10:52:20;25.70;68.30
52481;DHT22;38393;52.404;13.532;2023-06-19T10:54:45;25.80;68.80
52481;DHT22;38393;52.404;13.532;2023-06-19T10:57:11;25.80;68.90
52481;DHT22;38393;52.404;13.532;2023-06-19T10:59:39;25.80;67.50
52481;DHT22;38393;52.404;13.532;2023-06-19T11:02:05;25.90;65.40
52481;DHT22;38393;52.404;13.532;2023-06-19T11:04:31;26.10;66.90
52481;DHT22;38393;52.404;13.532;2023-06-19T11:06:56;26.00;66.40
52481;DHT22;38393;52.404;13.532;2023-06-19T11:09:22;26.30;66.80
52481;DHT22;38393;52.404;13.532;2023-06-19T11:11:48;26.60;64.30
52481;DHT22;38393;52.404;13.532;2023-06-19T11:14:15;26.70;65.80
52481;DHT22;38393;52.404;13.532;2023-06-19T11:16:47;26.90;65.10
52481;DHT22;38393;52.404;13.532;2023-06-19T11:19:18;26.90;62.40
52481;DHT22;38393;52.404;13.532;2023-06-19T11:21:46;26.90;59.80
52481;DHT22;38393;52.404;13.532;2023-06-19T11:24:13;27.00;60.70
52481;DHT22;38393;52.404;13.532;2023-06-19T11:26:47;27.30;59.80
52481;DHT22;38393;52.404;13.532;2023-06-19T11:29:17;27.10;61.20
52481;DHT22;38393;52.404;13.532;2023-06-19T11:31:44;27.00;61.60
52481;DHT22;38393;52.404;13.532;2023-06-19T11:34:09;26.60;59.20
52481;DHT22;38393;52.404;13.532;2023-06-19T11:36:39;26.80;59.60
52481;DHT22;38393;52.404;13.532;2023-06-19T11:39:06;26.70;58.60
52481;DHT22;38393;52.404;13.532;2023-06-19T11:41:34;26.50;60.10
52481;DHT22;38393;52.404;13.532;2023-06-19T11:44:07;26.20;59.90
52481;DHT22;38393;52.404;13.532;2023-06-19T11:46:34;26.20;61.80
52481;DHT22;38393;52.404;13.532;2023-06-19T11:49:14;26.10;62.20
52481;DHT22;38393;52.404;13.532;2023-06-19T11:51:40;26.10;61.70
52481;DHT22;38393;52.404;13.532;2023-06-19T11:54:07;26.00;62.00
52481;DHT22;38393;52.404;13.532;2023-06-19T11:56:34;26.10;63.90
52481;DHT22;38393;52.404;13.532;2023-06-19T11:58:59;26.20;60.50
52481;DHT22;38393;52.404;13.532;2023-06-19T12:01:25;26.40;60.90
52481;DHT22;38393;52.404;13.532;2023-06-19T12:03:51;26.40;61.70
52481;DHT22;38393;52.404;13.532;2023-06-19T12:06:17;26.50;61.60
52481;DHT22;38393;52.404;13.532;2023-06-19T12:08:43;26.80;59.90
52481;DHT22;38393;52.404;13.532;2023-06-19T12:11:09;26.90;60.50
52481;DHT22;38393;52.404;13.532;2023-06-19T12:13:35;27.20;59.30
52481;DHT22;38393;52.404;13.532;2023-06-19T12:16:01;27.20;59.00
52481;DHT22;38393;52.404;13.532;2023-06-19T12:18:27;27.40;59.10
52481;DHT22;38393;52.404;13.532;2023-06-19T12:20:52;27.70;59.80
52481;DHT22;38393;52.404;13.532;2023-06-19T12:23:18;27.90;58.90
52481;DHT22;38393;52.404;13.532;2023-06-19T12:25:44;28.20;57.20
52481;DHT22;38393;52.404;13.532;2023-06-19T12:28:09;28.10;57.70
52481;DHT22;38393;52.404;13.532;2023-06-19T12:30:36;28.10;57.70
52481;DHT22;38393;52.404;13.532;2023-06-19T12:33:02;28.40;56.60
52481;DHT22;38393;52.404;13.532;2023-06-19T12:35:29;28.70;57.60
52481;DHT22;38393;52.404;13.532;2023-06-19T12:37:54;28.70;56.70
52481;DHT22;38393;52.404;13.532;2023-06-19T12:40:20;28.40;54.10
52481;DHT22;38393;52.404;13.532;2023-06-19T12:42:46;28.30;56.00
52481;DHT22;38393;52.404;13.532;2023-06-19T12:45:12;28.40;53.80
52481;DHT22;38393;52.404;13.532;2023-06-19T12:47:38;28.20;55.50
52481;DHT22;38393;52.404;13.532;2023-06-19T12:50:03;28.20;56.90
52481;DHT22;38393;52.404;13.532;2023-06-19T12:52:29;28.10;54.90
52481;DHT22;38393;52.404;13.532;2023-06-19T12:54:56;28.00;55.30
52481;DHT22;38393;52.404;13.532;2023-06-19T12:57:21;27.90;54.30
52481;DHT22;38393;52.404;13.532;2023-06-19T12:59:47;27.90;55.50
52481;DHT22;38393;52.404;13.532;2023-06-19T13:02:12;28.20;54.80
52481;DHT22;38393;52.404;13.532;2023-06-19T13:04:38;28.30;56.40
52481;DHT22;38393;52.404;13.532;2023-06-19T13:07:03;28.40;54.50
52481;DHT22;38393;52.404;13.532;2023-06-19T13:09:29;28.60;55.90
52481;DHT22;38393;52.404;13.532;2023-06-19T13:11:55;28.50;54.50
52481;DHT22;38393;52.404;13.532;2023-06-19T13:14:20;28.10;53.60
52481;DHT22;38393;52.404;13.532;2023-06-19T13:16:46;28.10;55.20
52481;DHT22;38393;52.404;13.532;2023-06-19T13:19:11;28.70;55.40
52481;DHT22;38393;52.404;13.532;2023-06-19T13:21:37;28.80;55.00
52481;DHT22;38393;52.404;13.532;2023-06-19T13:24:02;28.70;54.50
52481;DHT22;38393;52.404;13.532;2023-06-19T13:26:28;28.90;54.70
52481;DHT22;38393;52.404;13.532;2023-06-19T13:28:53;29.20;54.50
52481;DHT22;38393;52.404;13.532;2023-06-19T13:31:19;29.30;53.30
52481;DHT22;38393;52.404;13.532;2023-06-19T13:33:44;29.60;52.60
52481;DHT22;38393;52.404;13.532;2023-06-19T13:36:10;29.30;53.00
52481;DHT22;38393;52.404;13.532;2023-06-19T13:38:35;29.30;52.60
52481;DHT22;38393;52.404;13.532;2023-06-19T13:41:01;29.30;56.50
52481;DHT22;38393;52.404;13.532;2023-06-19T13:43:26;29.30;53.80
52481;DHT22;38393;52.404;13.532;2023-06-19T13:45:52;29.10;53.50
52481;DHT22;38393;52.404;13.532;2023-06-19T13:48:17;29.30;54.10
52481;DHT22;38393;52.404;13.532;2023-06-19T13:50:43;29.50;52.20
52481;DHT22;38393;52.404;13.532;2023-06-19T13:53:08;29.50;51.20
52481;DHT22;38393;52.404;13.532;2023-06-19T13:55:34;29.30;54.10
52481;DHT22;38393;52.404;13.532;2023-06-19T13:57:59;29.30;52.10
52481;DHT22;38393;52.404;13.532;2023-06-19T14:00:24;28.90;52.80
52481;DHT22;38393;52.404;13.532;2023-06-19T14:02:50;28.70;52.20
52481;DHT22;38393;52.404;13.532;2023-06-19T14:05:16;28.70;52.60
52481;DHT22;38393;52.404;13.532;2023-06-19T14:07:42;28.80;54.90
52481;DHT22;38393;52.404;13.532;2023-06-19T14:10:08;28.70;55.30
52481;DHT22;38393;52.404;13.532;2023-06-19T14:12:34;28.90;54.60
52481;DHT22;38393;52.404;13.532;2023-06-19T14:14:59;29.10;54.70
52481;DHT22;38393;52.404;13.532;2023-06-19T14:17:25;29.10;53.20
52481;DHT22;38393;52.404;13.532;2023-06-19T14:19:51;29.20;54.70
52481;DHT22;38393;52.404;13.532;2023-06-19T14:22:16;28.90;54.60
52481;DHT22;38393;52.404;13.532;2023-06-19T14:24:42;28.70;55.40
52481;DHT22;38393;52.404;13.532;2023-06-19T14:27:08;28.70;54.40
52481;DHT22;38393;52.404;13.532;2023-06-19T14:29:33;29.00;53.40
52481;DHT22;38393;52.404;13.532;2023-06-19T14:31:59;28.80;52.50
52481;DHT22;38393;52.404;13.532;2023-06-19T14:34:24;28.80;53.60
52481;DHT22;38393;52.404;13.532;2023-06-19T14:36:50;28.80;53.70
52481;DHT22;38393;52.404;13.532;2023-06-19T14:39:15;28.70;54.70
52481;DHT22;38393;52.404;13.532;2023-06-19T14:41:41;28.70;54.70
52481;DHT22;38393;52.404;13.532;2023-06-19T14:44:07;28.70;55.20
52481;DHT22;38393;52.404;13.532;2023-06-19T14:46:32;28.60;55.00
52481;DHT22;38393;52.404;13.532;2023-06-19T14:48:58;28.50;55.30
52481;DHT22;38393;52.404;13.532;2023-06-19T14:51:26;28.70;54.50
52481;DHT22;38393;52.404;13.532;2023-06-19T14:53:51;29.00;55.70
52481;DHT22;38393;52.404;13.532;2023-06-19T14:56:17;29.00;56.00
52481;DHT22;38393;52.404;13.532;2023-06-19T14:58:42;29.10;55.20
52481;DHT22;38393;52.404;13.532;2023-06-19T15:01:08;29.40;53.50
52481;DHT22;38393;52.404;13.532;2023-06-19T15:03:34;29.60;52.60
52481;DHT22;38393;52.404;13.532;2023-06-19T15:06:00;29.40;52.30
52481;DHT22;38393;52.404;13.532;2023-06-19T15:08:25;29.40;55.40
52481;DHT22;38393;52.404;13.532;2023-06-19T15:10:51;29.60;55.10
52481;DHT22;38393;52.404;13.532;2023-06-19T15:13:17;29.90;52.30
52481;DHT22;38393;52.404;13.532;2023-06-19T15:15:43;29.80;53.00